Time;durP1;ratioP1;P1;durP2;ratioP2;P2;SDS_P1;SDS_P2;PMS_P1;PMS_P2;Temp;Humidity;BMP_temperature;BMP_pressure;BME280_temperature;BME280_humidity;BME280_pressure;Samples;Min_cycle;Max_cycle;Signal;HPM_P1;HPM_P2
2022/08/08 00:00:27;;;;;;;7.30;3.05;;;15.40;99.90;;;;;;4890286;29;20085;-92
2022/08/08 00:03:09;;;;;;;5.97;2.85;;;15.30;99.90;;;;;;4890730;29;20033;-92
2022/08/08 00:06:01;;;;;;;6.82;3.03;;;15.30;99.90;;;;;;4904891;29;20025;-93
2022/08/08 00:08:48;;;;;;;10.48;3.33;;;15.30;99.90;;;;;;4887495;29;20039;-92
2022/08/08 00:11:20;;;;;;;8.73;3.10;;;15.30;99.90;;;;;;4903302;29;20044;-93
2022/08/08 00:14:03;;;;;;;5.68;2.70;;;15.20;99.90;;;;;;4916255;29;20020;-91
2022/08/08 00:16:41;;;;;;;14.18;3.35;;;15.20;99.90;;;;;;4887679;29;20622;-91
2022/08/08 00:19:49;;;;;;;6.22;2.50;;;15.20;99.90;;;;;;4887266;29;20044;-93
2022/08/08 00:22:24;;;;;;;8.30;3.00;;;15.20;99.90;;;;;;4886343;29;20025;-93
2022/08/08 00:25:00;;;;;;;5.07;2.50;;;15.20;99.90;;;;;;4890295;29;20061;-91
2022/08/08 00:27:27;;;;;;;9.73;3.40;;;15.20;99.90;;;;;;4890229;29;20039;-92
2022/08/08 00:30:00;;;;;;;6.40;2.85;;;15.20;99.90;;;;;;4960877;28;20026;-92
2022/08/08 00:32:36;;;;;;;6.07;3.30;;;15.20;99.90;;;;;;4991471;28;20049;-94
2022/08/08 00:35:14;;;;;;;7.15;2.65;;;15.20;99.90;;;;;;4995453;28;20048;-91
2022/08/08 00:37:59;;;;;;;3.53;2.40;;;15.20;99.90;;;;;;4993921;28;20121;-93
2022/08/08 00:40:27;;;;;;;4.43;2.53;;;15.20;99.90;;;;;;4982526;28;20035;-91
2022/08/08 00:43:21;;;;;;;5.47;2.97;;;15.20;99.90;;;;;;4996714;28;20034;-90
2022/08/08 00:46:15;;;;;;;7.35;2.60;;;15.10;99.90;;;;;;5008870;28;20166;-92
2022/08/08 00:48:58;;;;;;;10.48;2.72;;;15.00;99.90;;;;;;4993129;28;20129;-92
2022/08/08 00:51:42;;;;;;;7.25;3.35;;;15.00;99.90;;;;;;5011963;28;20021;-92
2022/08/08 00:54:32;;;;;;;8.25;2.70;;;15.00;99.90;;;;;;4994854;28;20018;-93
2022/08/08 00:57:21;;;;;;;4.65;2.45;;;14.90;99.90;;;;;;4993345;28;20061;-91
2022/08/08 01:00:07;;;;;;;6.93;3.20;;;14.90;99.90;;;;;;4993663;28;20046;-90
2022/08/08 01:03:10;;;;;;;6.68;2.90;;;14.80;99.90;;;;;;4993863;28;20094;-91
2022/08/08 01:06:06;;;;;;;5.88;2.67;;;14.70;99.90;;;;;;4992792;28;20566;-91
2022/08/08 01:09:14;;;;;;;5.25;2.92;;;14.60;99.90;;;;;;4994363;28;20022;-91
2022/08/08 01:12:01;;;;;;;7.22;2.67;;;14.60;99.90;;;;;;5000780;28;20034;-91
2022/08/08 01:14:58;;;;;;;4.80;2.95;;;14.50;99.90;;;;;;4997471;28;20038;-93
2022/08/08 01:17:59;;;;;;;5.32;2.58;;;14.50;99.90;;;;;;4999653;28;20019;-89
2022/08/08 01:20:56;;;;;;;7.93;2.83;;;14.50;99.90;;;;;;4933252;29;20048;-92
2022/08/08 01:23:25;;;;;;;6.68;2.70;;;14.50;99.90;;;;;;4940845;29;20099;-91
2022/08/08 01:26:14;;;;;;;8.38;2.97;;;14.40;99.90;;;;;;4940619;29;20091;-92
2022/08/08 01:29:18;;;;;;;7.88;2.80;;;14.40;99.90;;;;;;4938578;29;20040;-92
2022/08/08 01:32:18;;;;;;;6.28;3.13;;;14.20;99.90;;;;;;4924145;29;20063;-92
2022/08/08 01:35:11;;;;;;;8.75;3.47;;;14.10;99.90;;;;;;4934216;29;20031;-89
2022/08/08 01:38:13;;;;;;;6.95;3.25;;;14.00;99.90;;;;;;4940467;29;20043;-93
2022/08/08 01:40:48;;;;;;;7.00;3.00;;;13.90;99.90;;;;;;4937998;29;20032;-92
2022/08/08 01:43:32;;;;;;;7.43;3.10;;;13.90;99.90;;;;;;4940993;29;20079;-89
2022/08/08 01:46:15;;;;;;;5.43;3.05;;;13.80;99.90;;;;;;4955720;29;20042;-92
2022/08/08 01:48:52;;;;;;;4.72;3.30;;;13.80;99.90;;;;;;4936465;29;20043;-92
2022/08/08 01:51:36;;;;;;;9.23;3.50;;;13.80;99.90;;;;;;4953432;29;20087;-95
2022/08/08 01:54:50;;;;;;;6.10;3.50;;;13.80;99.90;;;;;;4934706;29;20016;-91
2022/08/08 01:57:38;;;;;;;6.40;3.10;;;13.80;99.90;;;;;;4993999;28;20476;-92
2022/08/08 02:00:22;;;;;;;4.63;3.20;;;13.70;99.90;;;;;;4991197;28;20038;-92
2022/08/08 02:03:05;;;;;;;6.03;2.60;;;13.60;99.90;;;;;;4998650;28;20073;-93
2022/08/08 02:05:44;;;;;;;6.47;2.97;;;13.60;99.90;;;;;;4997145;28;20030;-92
2022/08/08 02:08:47;;;;;;;5.82;2.83;;;13.50;99.90;;;;;;4998030;28;20121;-91
2022/08/08 02:11:35;;;;;;;5.95;2.97;;;13.50;99.90;;;;;;4998644;28;20030;-94
2022/08/08 02:14:23;;;;;;;8.98;3.15;;;13.50;99.90;;;;;;4994399;28;20041;-90
2022/08/08 02:17:02;;;;;;;5.10;3.20;;;13.50;99.90;;;;;;5002759;28;20022;-92
2022/08/08 02:19:40;;;;;;;5.60;3.00;;;13.40;99.90;;;;;;4999247;28;20054;-93
2022/08/08 02:22:54;;;;;;;7.93;3.53;;;13.40;99.90;;;;;;4996767;28;20030;-93
2022/08/08 02:25:41;;;;;;;7.65;3.40;;;13.40;99.90;;;;;;4983448;28;20034;-92
2022/08/08 02:28:15;;;;;;;3.70;3.22;;;13.30;99.90;;;;;;4994559;28;20023;-94
2022/08/08 02:31:18;;;;;;;6.05;3.30;;;13.30;99.90;;;;;;4997837;28;20026;-92
2022/08/08 02:33:55;;;;;;;6.07;3.30;;;13.20;99.90;;;;;;5002358;28;20093;-91
2022/08/08 02:36:37;;;;;;;5.45;3.28;;;13.10;99.90;;;;;;4997785;28;20042;-92
2022/08/08 02:39:24;;;;;;;6.32;3.50;;;13.00;99.90;;;;;;5001711;28;20041;-92
2022/08/08 02:42:05;;;;;;;6.45;3.42;;;13.00;99.90;;;;;;5002198;28;20041;-91
2022/08/08 02:44:58;;;;;;;6.15;3.00;;;13.00;99.90;;;;;;5001877;28;20025;-92
2022/08/08 02:47:58;;;;;;;7.05;3.22;;;13.00;99.90;;;;;;5002636;28;20048;-92
2022/08/08 02:50:43;;;;;;;4.80;3.22;;;13.00;99.90;;;;;;5002236;28;20042;-93
2022/08/08 02:53:20;;;;;;;5.32;3.15;;;12.90;99.90;;;;;;5002216;28;20015;-91
2022/08/08 02:56:08;;;;;;;4.93;3.10;;;12.90;99.90;;;;;;5002220;28;20034;-91
2022/08/08 02:59:00;;;;;;;8.70;3.60;;;12.90;99.90;;;;;;5002346;28;20042;-90
2022/08/08 03:01:48;;;;;;;4.43;3.10;;;12.90;99.90;;;;;;4985423;28;20057;-90
2022/08/08 03:05:01;;;;;;;6.43;3.28;;;12.80;99.90;;;;;;4998703;28;20042;-92
2022/08/08 03:07:40;;;;;;;7.00;3.85;;;12.80;99.90;;;;;;4993249;28;20026;-91
2022/08/08 03:11:05;;;;;;;6.00;4.03;;;12.70;99.90;;;;;;5001007;28;20022;-91
2022/08/08 03:13:58;;;;;;;5.78;3.65;;;12.70;99.90;;;;;;4955705;29;20043;-94
2022/08/08 03:16:43;;;;;;;5.65;3.55;;;12.60;99.90;;;;;;4944903;29;20023;-94
2022/08/08 03:19:37;;;;;;;8.18;4.03;;;12.60;99.90;;;;;;4912610;29;20039;-94
2022/08/08 03:22:03;;;;;;;8.98;3.63;;;12.50;99.90;;;;;;4932462;29;20023;-92
2022/08/08 03:24:28;;;;;;;5.75;3.55;;;12.50;99.90;;;;;;4947084;29;20035;-91
2022/08/08 03:27:17;;;;;;;6.70;4.10;;;12.50;99.90;;;;;;4944899;29;20031;-93
2022/08/08 03:29:51;;;;;;;6.20;3.33;;;12.50;99.90;;;;;;4947048;29;20027;-93
2022/08/08 03:35:04;;;;;;;4.82;3.72;;;12.50;99.90;;;;;;4959888;29;20062;-92
2022/08/08 03:37:33;;;;;;;6.10;3.45;;;12.50;99.90;;;;;;4943953;29;20130;-93
2022/08/08 03:40:00;;;;;;;7.00;3.35;;;12.50;99.90;;;;;;4954738;29;20035;-92
2022/08/08 03:42:26;;;;;;;6.47;4.30;;;12.50;99.90;;;;;;4946604;29;20023;-91
2022/08/08 03:44:52;;;;;;;5.07;4.03;;;12.40;99.90;;;;;;4966122;28;20369;-92
2022/08/08 03:47:21;;;;;;;6.28;3.50;;;12.40;99.90;;;;;;4979422;28;20141;-93
2022/08/08 03:49:50;;;;;;;9.40;3.95;;;12.30;99.90;;;;;;4979191;28;20551;-93
2022/08/08 03:52:16;;;;;;;6.55;3.85;;;12.30;99.90;;;;;;4979293;28;20053;-93
2022/08/08 03:54:43;;;;;;;9.15;4.55;;;12.20;99.90;;;;;;4979696;28;20472;-93
2022/08/08 03:57:17;;;;;;;6.43;4.70;;;12.10;99.90;;;;;;4980411;28;20029;-93
2022/08/08 03:59:44;;;;;;;4.57;3.70;;;12.10;99.90;;;;;;4980301;28;20034;-92
2022/08/08 04:02:17;;;;;;;5.10;3.83;;;12.10;99.90;;;;;;4979670;28;20538;-92
2022/08/08 04:04:43;;;;;;;8.07;4.00;;;12.10;99.90;;;;;;4979324;28;20054;-93
2022/08/08 04:07:09;;;;;;;5.30;4.00;;;12.10;99.90;;;;;;4978923;28;20026;-92
2022/08/08 04:09:35;;;;;;;5.28;3.00;;;12.10;99.90;;;;;;4979157;28;20033;-92
2022/08/08 04:12:01;;;;;;;7.65;3.33;;;12.10;99.90;;;;;;4979310;28;20503;-92
2022/08/08 04:14:27;;;;;;;6.90;3.53;;;12.00;99.90;;;;;;4978617;28;20034;-93
2022/08/08 04:16:53;;;;;;;8.70;3.42;;;12.10;99.90;;;;;;4979934;28;20038;-92
2022/08/08 04:19:20;;;;;;;7.38;3.33;;;12.10;99.90;;;;;;4980031;28;20038;-93
2022/08/08 04:21:46;;;;;;;5.07;3.60;;;12.00;99.90;;;;;;4981031;28;20049;-93
2022/08/08 04:24:12;;;;;;;9.18;3.58;;;12.10;99.90;;;;;;4983642;28;20022;-93
2022/08/08 04:26:37;;;;;;;4.35;2.92;;;12.00;99.90;;;;;;4979323;28;20026;-92
2022/08/08 04:29:03;;;;;;;4.95;3.83;;;12.00;99.90;;;;;;4980268;28;20057;-93
2022/08/08 04:31:29;;;;;;;7.35;3.45;;;12.00;99.90;;;;;;4981202;28;20058;-92
2022/08/08 04:33:55;;;;;;;8.05;3.90;;;12.00;99.90;;;;;;4993307;28;20076;-91
2022/08/08 04:36:21;;;;;;;7.40;3.45;;;12.00;99.90;;;;;;4992752;28;20019;-93
2022/08/08 04:38:46;;;;;;;6.82;3.30;;;11.90;99.90;;;;;;4994694;28;20025;-93
2022/08/08 04:41:12;;;;;;;6.60;3.70;;;11.90;99.90;;;;;;4989408;28;20034;-91
2022/08/08 04:43:38;;;;;;;4.82;3.20;;;11.90;99.90;;;;;;4989271;28;20033;-90
2022/08/08 04:46:04;;;;;;;8.98;3.65;;;11.90;99.90;;;;;;4983325;28;20039;-93
2022/08/08 04:48:30;;;;;;;8.80;3.50;;;11.90;99.90;;;;;;4978517;28;20043;-93
2022/08/08 04:50:56;;;;;;;6.00;3.47;;;11.90;99.90;;;;;;4979927;28;20113;-91
2022/08/08 04:53:22;;;;;;;4.82;3.08;;;11.80;99.90;;;;;;4979862;28;20428;-93
2022/08/08 04:55:48;;;;;;;5.43;3.13;;;11.80;99.90;;;;;;4982017;28;20058;-91
2022/08/08 04:58:15;;;;;;;4.18;2.88;;;11.80;99.90;;;;;;4992950;28;20034;-93
2022/08/08 05:00:41;;;;;;;4.82;3.25;;;11.70;99.90;;;;;;4993538;28;20038;-92
2022/08/08 05:03:07;;;;;;;5.15;3.20;;;11.70;99.90;;;;;;4997963;28;20031;-90
2022/08/08 05:05:33;;;;;;;7.70;3.25;;;11.60;99.90;;;;;;4999994;28;20030;-90
2022/08/08 05:07:59;;;;;;;5.75;3.15;;;11.60;99.90;;;;;;5000359;28;20030;-90
2022/08/08 05:10:28;;;;;;;5.85;3.70;;;11.60;99.90;;;;;;4995163;28;20034;-92
2022/08/08 05:12:57;;;;;;;5.95;3.97;;;11.60;99.90;;;;;;4983497;28;20029;-93
2022/08/08 05:15:23;;;;;;;7.15;3.47;;;11.60;99.90;;;;;;4982956;28;20030;-93
2022/08/08 05:17:50;;;;;;;5.75;3.45;;;11.60;99.90;;;;;;4981180;28;20021;-93
2022/08/08 05:20:16;;;;;;;5.30;3.40;;;11.60;99.90;;;;;;4979663;28;20034;-92
2022/08/08 05:22:41;;;;;;;6.57;3.47;;;11.60;99.90;;;;;;4978973;28;20085;-93
2022/08/08 05:25:07;;;;;;;4.32;2.95;;;11.60;99.90;;;;;;4989337;28;20100;-93
2022/08/08 05:27:33;;;;;;;6.07;3.15;;;11.60;99.90;;;;;;4978959;28;20110;-92
2022/08/08 05:29:59;;;;;;;4.32;3.28;;;11.60;99.90;;;;;;4978440;28;20027;-92
2022/08/08 05:32:25;;;;;;;3.95;2.88;;;11.60;99.90;;;;;;4980042;28;20034;-93
2022/08/08 05:34:51;;;;;;;5.35;3.15;;;11.60;99.90;;;;;;4979965;28;20034;-93
2022/08/08 05:37:26;;;;;;;3.92;3.00;;;11.60;99.90;;;;;;4983631;28;20026;-92
2022/08/08 05:39:54;;;;;;;8.82;3.50;;;11.60;99.90;;;;;;4983568;28;20040;-92
2022/08/08 05:42:26;;;;;;;4.82;3.10;;;11.60;99.90;;;;;;4983366;28;20244;-93
2022/08/08 05:44:52;;;;;;;7.22;3.00;;;11.70;99.90;;;;;;4982713;28;20054;-92
2022/08/08 05:47:20;;;;;;;4.47;3.35;;;11.70;99.90;;;;;;4983299;28;20038;-93
2022/08/08 05:49:48;;;;;;;5.45;3.30;;;11.60;99.90;;;;;;4982248;28;20121;-90
2022/08/08 05:52:16;;;;;;;9.05;3.58;;;11.60;99.90;;;;;;4982316;28;20026;-91
2022/08/08 05:54:41;;;;;;;5.90;3.70;;;11.60;99.90;;;;;;4983193;28;20026;-92
2022/08/08 05:57:13;;;;;;;4.38;3.13;;;11.50;99.90;;;;;;4981952;28;20030;-91
2022/08/08 05:59:42;;;;;;;8.50;3.72;;;11.50;99.90;;;;;;4982453;28;20499;-92
2022/08/08 06:05:10;;;;;;;4.78;3.38;;;11.50;99.90;;;;;;4999504;28;20061;-91
2022/08/08 06:07:39;;;;;;;6.15;3.25;;;11.60;99.90;;;;;;4981633;28;20027;-92
2022/08/08 06:10:07;;;;;;;4.55;3.60;;;11.60;99.90;;;;;;4981793;28;20026;-92
2022/08/08 06:12:35;;;;;;;5.03;3.72;;;11.60;99.90;;;;;;4999388;28;20022;-92
2022/08/08 06:15:04;;;;;;;6.93;4.13;;;11.70;99.90;;;;;;4981098;28;20023;-91
2022/08/08 06:17:36;;;;;;;5.65;3.80;;;11.70;99.90;;;;;;4981787;28;20603;-91
2022/08/08 06:20:05;;;;;;;10.45;4.00;;;11.80;99.90;;;;;;4980512;28;20512;-90
2022/08/08 06:22:30;;;;;;;6.47;4.05;;;11.90;99.90;;;;;;4981563;28;20054;-92
2022/08/08 06:24:56;;;;;;;11.30;5.35;;;11.90;99.90;;;;;;4978575;28;20026;-92
2022/08/08 06:27:45;;;;;;;5.82;4.40;;;12.00;99.90;;;;;;4979965;28;20033;-91
2022/08/08 06:30:13;;;;;;;7.75;4.68;;;12.10;99.90;;;;;;4979769;28;20145;-92
2022/08/08 06:32:51;;;;;;;10.43;5.18;;;12.10;99.90;;;;;;4997957;28;20534;-92
2022/08/08 06:35:18;;;;;;;9.15;5.10;;;12.20;99.90;;;;;;4990291;28;20097;-90
2022/08/08 06:37:55;;;;;;;9.35;4.93;;;12.30;99.90;;;;;;4984842;28;20113;-91
2022/08/08 06:40:24;;;;;;;11.23;4.93;;;12.40;99.90;;;;;;4978681;28;20042;-93
2022/08/08 06:42:56;;;;;;;7.55;4.85;;;12.40;99.90;;;;;;4978592;28;20026;-92
2022/08/08 06:45:23;;;;;;;7.90;4.82;;;12.50;99.90;;;;;;4978237;28;20022;-91
2022/08/08 06:47:50;;;;;;;5.75;4.10;;;12.60;99.90;;;;;;4977716;28;20042;-92
2022/08/08 06:50:16;;;;;;;8.43;4.47;;;12.70;99.90;;;;;;4979033;28;20022;-91
2022/08/08 06:52:42;;;;;;;8.65;4.10;;;12.80;99.90;;;;;;4979120;28;20514;-94
2022/08/08 06:55:08;;;;;;;4.97;4.07;;;12.90;99.90;;;;;;4979231;28;20384;-91
2022/08/08 06:57:34;;;;;;;7.80;5.47;;;12.90;99.90;;;;;;4980257;28;20022;-95
2022/08/08 07:00:05;;;;;;;7.75;3.83;;;13.10;99.90;;;;;;4984633;28;20035;-91
2022/08/08 07:02:32;;;;;;;10.63;4.43;;;13.10;99.90;;;;;;4981513;28;20022;-93
2022/08/08 07:05:08;;;;;;;5.88;3.83;;;13.20;99.90;;;;;;4980124;28;20034;-94
2022/08/08 07:07:49;;;;;;;11.75;3.90;;;13.30;99.90;;;;;;4983272;28;20022;-93
2022/08/08 07:10:21;;;;;;;7.63;3.80;;;13.50;99.90;;;;;;4989446;28;20404;-92
2022/08/08 07:12:58;;;;;;;8.98;5.53;;;13.60;99.90;;;;;;4989531;28;20053;-92
2022/08/08 07:15:46;;;;;;;8.10;3.67;;;13.70;99.90;;;;;;4996383;28;20229;-93
2022/08/08 07:18:20;;;;;;;6.80;3.85;;;13.90;99.90;;;;;;4993072;28;20034;-91
2022/08/08 07:20:50;;;;;;;5.60;3.47;;;14.00;99.90;;;;;;4991904;28;20038;-92
2022/08/08 07:23:26;;;;;;;21.77;4.80;;;14.20;99.90;;;;;;4992872;28;20077;-94
2022/08/08 07:25:54;;;;;;;13.75;4.07;;;14.30;99.90;;;;;;4994031;28;20038;-92
2022/08/08 07:28:24;;;;;;;12.65;4.32;;;14.40;99.90;;;;;;4991185;28;20007;-93
2022/08/08 07:30:50;;;;;;;10.93;3.38;;;14.60;99.90;;;;;;4994072;28;20105;-92
2022/08/08 07:33:21;;;;;;;7.22;3.30;;;14.80;99.90;;;;;;4991045;28;20089;-92
2022/08/08 07:35:48;;;;;;;7.35;3.33;;;14.90;99.90;;;;;;4991406;28;20057;-93
2022/08/08 07:38:17;;;;;;;10.15;3.38;;;15.00;99.90;;;;;;4995024;28;20054;-93
2022/08/08 07:40:44;;;;;;;13.88;3.28;;;15.10;99.90;;;;;;4996291;28;20034;-92
2022/08/08 07:43:11;;;;;;;9.93;3.78;;;15.30;99.90;;;;;;4988885;28;20026;-93
2022/08/08 07:45:39;;;;;;;10.43;3.30;;;15.40;99.90;;;;;;4985092;28;20041;-95
2022/08/08 07:48:06;;;;;;;8.40;3.40;;;15.50;99.90;;;;;;4983801;28;20054;-92
2022/08/08 07:50:36;;;;;;;6.05;3.40;;;15.60;99.90;;;;;;4986808;28;20050;-94
2022/08/08 07:53:38;;;;;;;8.23;2.88;;;15.80;99.90;;;;;;4984975;28;20022;-94
2022/08/08 07:56:10;;;;;;;5.55;2.40;;;15.90;99.90;;;;;;4986230;28;20058;-95
2022/08/08 07:58:41;;;;;;;6.38;2.40;;;16.00;99.90;;;;;;4981193;28;20042;-93
2022/08/08 08:01:19;;;;;;;5.18;3.08;;;16.20;99.90;;;;;;4980905;28;20018;-95
2022/08/08 08:03:58;;;;;;;3.83;1.90;;;16.30;99.90;;;;;;4980807;28;20109;-94
2022/08/08 08:06:25;;;;;;;7.97;2.13;;;16.50;99.90;;;;;;4979519;28;20034;-91
2022/08/08 08:09:04;;;;;;;6.43;1.92;;;16.70;99.90;;;;;;4982514;28;20030;-93
2022/08/08 08:11:33;;;;;;;5.80;2.42;;;16.90;99.90;;;;;;4978627;28;20638;-90
2022/08/08 08:14:04;;;;;;;8.63;2.92;;;17.20;99.90;;;;;;4961753;28;20042;-93
2022/08/08 08:16:33;;;;;;;6.43;2.20;;;17.40;99.90;;;;;;4978218;28;20172;-92
2022/08/08 08:19:03;;;;;;;2.92;1.98;;;17.50;99.90;;;;;;4979108;28;20046;-92
2022/08/08 08:21:36;;;;;;;5.35;1.80;;;17.70;99.90;;;;;;4994944;28;20416;-92
2022/08/08 08:24:02;;;;;;;5.75;1.95;;;17.80;99.90;;;;;;4979676;28;20053;-92
2022/08/08 08:26:27;;;;;;;6.25;2.13;;;18.10;99.90;;;;;;4979543;28;20026;-94
2022/08/08 08:28:53;;;;;;;5.55;1.90;;;18.20;99.90;;;;;;4979277;28;20121;-94
2022/08/08 08:31:19;;;;;;;8.65;2.08;;;18.30;99.90;;;;;;4980748;28;20026;-94
2022/08/08 08:33:45;;;;;;;3.33;1.50;;;18.50;99.90;;;;;;4980734;28;20036;-94
2022/08/08 08:36:11;;;;;;;4.45;1.60;;;18.70;99.90;;;;;;4983210;28;20086;-94
2022/08/08 08:38:37;;;;;;;5.55;1.70;;;18.80;99.90;;;;;;4992623;28;20041;-94
2022/08/08 08:41:05;;;;;;;3.83;1.70;;;19.00;99.90;;;;;;4988674;28;20057;-94
2022/08/08 08:43:33;;;;;;;3.72;1.50;;;19.20;99.90;;;;;;4980783;28;20034;-94
2022/08/08 08:45:59;;;;;;;3.38;1.40;;;19.40;99.90;;;;;;4980116;28;20030;-94
2022/08/08 08:48:26;;;;;;;4.70;1.67;;;19.50;99.90;;;;;;4979552;28;20042;-93
2022/08/08 08:50:54;;;;;;;4.60;1.35;;;19.70;99.90;;;;;;4979779;28;20033;-93
2022/08/08 08:53:21;;;;;;;6.60;1.30;;;19.90;99.90;;;;;;4979607;28;20034;-93
2022/08/08 08:55:48;;;;;;;2.42;1.73;;;20.00;99.90;;;;;;4979586;28;20054;-94
2022/08/08 08:58:27;;;;;;;2.80;1.20;;;20.20;99.90;;;;;;4980083;28;20685;-93
2022/08/08 09:00:56;;;;;;;6.38;1.60;;;20.40;99.90;;;;;;4994150;28;20035;-95
2022/08/08 09:03:49;;;;;;;5.20;2.03;;;20.40;99.90;;;;;;5019965;28;20045;-94
2022/08/08 09:06:37;;;;;;;5.47;1.52;;;20.50;99.90;;;;;;5011644;28;20069;-95
2022/08/08 09:09:25;;;;;;;2.55;1.20;;;20.60;99.90;;;;;;4998227;28;20041;-95
2022/08/08 09:12:02;;;;;;;2.35;1.33;;;20.50;99.90;;;;;;5000541;28;20042;-95
2022/08/08 09:14:29;;;;;;;2.92;1.25;;;20.50;99.90;;;;;;5009841;28;20054;-94
2022/08/08 09:16:59;;;;;;;2.38;0.95;;;20.50;99.90;;;;;;4993015;28;20018;-89
2022/08/08 09:19:29;;;;;;;4.28;1.35;;;20.40;99.90;;;;;;5014060;28;20022;-90
2022/08/08 09:21:59;;;;;;;3.13;1.13;;;20.40;99.80;;;;;;5015501;28;20021;-91
2022/08/08 09:24:28;;;;;;;8.25;2.25;;;20.40;99.90;;;;;;4986303;28;20026;-93
2022/08/08 09:27:07;;;;;;;8.57;4.40;;;20.50;99.70;;;;;;5011631;28;20015;-95
2022/08/08 09:30:05;;;;;;;13.63;5.82;;;20.50;99.40;;;;;;5009091;28;20034;-95
2022/08/08 09:32:55;;;;;;;12.40;7.18;;;20.50;98.70;;;;;;4985960;28;20069;-95
2022/08/08 09:35:27;;;;;;;14.73;7.03;;;20.50;98.20;;;;;;4978252;28;20480;-95
2022/08/08 09:38:01;;;;;;;4.88;2.95;;;20.50;97.90;;;;;;4984264;28;20026;-95
2022/08/08 09:40:33;;;;;;;8.13;3.45;;;20.50;97.50;;;;;;4992879;28;20021;-92
2022/08/08 09:43:15;;;;;;;10.60;4.32;;;20.50;97.20;;;;;;4974132;28;20074;-96
2022/08/08 09:45:50;;;;;;;12.38;4.68;;;20.50;97.00;;;;;;5014833;28;20037;-96
2022/08/08 09:48:17;;;;;;;8.45;2.83;;;20.60;96.80;;;;;;4988139;28;20038;-95
2022/08/08 09:50:50;;;;;;;3.25;2.05;;;20.70;96.60;;;;;;4984569;28;20118;-91
2022/08/08 09:53:19;;;;;;;5.07;2.00;;;20.80;96.20;;;;;;4998970;28;20026;-96
2022/08/08 09:55:45;;;;;;;2.92;1.80;;;20.90;95.90;;;;;;4986657;28;20070;-95
2022/08/08 09:58:16;;;;;;;3.60;1.75;;;21.00;95.70;;;;;;5008864;28;20089;-95
2022/08/08 10:00:45;;;;;;;3.72;1.30;;;21.10;95.40;;;;;;4975856;28;20035;-94
2022/08/08 10:03:17;;;;;;;5.03;1.45;;;21.30;95.00;;;;;;4995313;28;20101;-94
2022/08/08 10:05:46;;;;;;;4.55;1.50;;;21.40;94.30;;;;;;4997624;28;20084;-94
2022/08/08 10:08:25;;;;;;;4.13;1.60;;;21.60;93.80;;;;;;4960586;28;20138;-94
2022/08/08 10:10:57;;;;;;;3.50;1.40;;;21.70;93.40;;;;;;5003844;28;20029;-96
2022/08/08 10:13:31;;;;;;;3.75;1.50;;;21.80;92.90;;;;;;4987263;28;20120;-92
2022/08/08 10:16:00;;;;;;;3.60;1.58;;;22.00;92.70;;;;;;4974112;28;20049;-95
2022/08/08 10:18:32;;;;;;;9.82;1.80;;;22.40;92.10;;;;;;4995442;28;20087;-93
2022/08/08 10:21:10;;;;;;;5.15;1.73;;;22.60;91.50;;;;;;4992164;28;20046;-94
2022/08/08 10:23:45;;;;;;;4.93;1.60;;;22.80;90.80;;;;;;4983745;28;20090;-95
2022/08/08 10:26:31;;;;;;;2.50;1.20;;;22.90;90.30;;;;;;5001296;28;20042;-95
2022/08/08 10:29:04;;;;;;;3.88;1.60;;;22.90;90.00;;;;;;4987995;28;20099;-94
2022/08/08 10:34:18;;;;;;;5.40;1.35;;;23.10;88.80;;;;;;4999345;28;20041;-92
2022/08/08 10:36:45;;;;;;;3.00;1.40;;;23.20;87.60;;;;;;4981334;28;20022;-91
2022/08/08 10:39:18;;;;;;;7.95;2.05;;;23.30;86.60;;;;;;4981944;28;20034;-92
2022/08/08 10:41:47;;;;;;;3.65;1.20;;;23.50;85.10;;;;;;4985963;28;20034;-92
2022/08/08 10:44:17;;;;;;;1.73;1.20;;;23.60;84.40;;;;;;5004029;28;20057;-93
2022/08/08 10:46:43;;;;;;;3.65;1.40;;;23.90;83.80;;;;;;5016518;28;20045;-90
2022/08/08 10:49:19;;;;;;;2.92;1.17;;;24.10;82.90;;;;;;5003613;28;20058;-93
2022/08/08 10:51:45;;;;;;;3.75;1.60;;;24.20;81.60;;;;;;5002260;28;20031;-92
2022/08/08 10:54:19;;;;;;;6.88;1.70;;;24.30;80.70;;;;;;5012632;28;20033;-96
2022/08/08 10:56:45;;;;;;;5.70;1.20;;;24.30;79.30;;;;;;4986032;28;20026;-94
2022/08/08 10:59:11;;;;;;;4.70;1.20;;;24.30;79.10;;;;;;5001688;28;20534;-93
2022/08/08 11:01:40;;;;;;;4.80;1.30;;;24.50;78.80;;;;;;4981056;28;20044;-91
2022/08/08 11:04:08;;;;;;;4.80;1.27;;;24.80;78.30;;;;;;5005603;28;20050;-91
2022/08/08 11:06:35;;;;;;;5.75;2.10;;;25.10;77.30;;;;;;4982236;28;20026;-90
2022/08/08 11:09:03;;;;;;;3.33;1.20;;;25.30;76.40;;;;;;4984128;28;20049;-94
2022/08/08 11:11:37;;;;;;;1.25;1.00;;;25.50;75.70;;;;;;4997576;28;20026;-93
2022/08/08 11:14:05;;;;;;;3.58;1.30;;;25.60;74.60;;;;;;5004090;28;20026;-94
2022/08/08 11:16:45;;;;;;;2.38;1.08;;;25.60;74.20;;;;;;4992385;28;20584;-94
2022/08/08 11:19:22;;;;;;;2.65;1.00;;;25.60;72.90;;;;;;5001950;28;20050;-94
2022/08/08 11:21:51;;;;;;;4.68;1.10;;;25.70;72.40;;;;;;4997297;28;20038;-92
2022/08/08 11:24:19;;;;;;;3.60;0.93;;;25.90;72.00;;;;;;4998892;28;20042;-93
2022/08/08 11:26:45;;;;;;;3.55;1.20;;;26.00;70.80;;;;;;4978592;28;20033;-93
2022/08/08 11:29:13;;;;;;;4.93;1.60;;;25.90;70.10;;;;;;4980148;28;20435;-93
2022/08/08 11:31:47;;;;;;;2.78;1.33;;;25.70;69.70;;;;;;4979848;28;20068;-94
2022/08/08 11:34:16;;;;;;;4.45;1.45;;;25.60;70.20;;;;;;4978284;28;20026;-94
2022/08/08 11:36:43;;;;;;;3.20;1.27;;;25.60;70.30;;;;;;4968051;28;20114;-94
2022/08/08 11:39:11;;;;;;;8.38;1.60;;;25.80;70.50;;;;;;4973918;28;20038;-93
2022/08/08 11:41:38;;;;;;;3.92;1.65;;;25.90;69.70;;;;;;4973218;28;20023;-94
2022/08/08 11:44:04;;;;;;;5.10;1.60;;;25.80;69.30;;;;;;4973329;28;20019;-92
2022/08/08 11:46:34;;;;;;;5.93;1.40;;;25.60;70.00;;;;;;4977050;28;20037;-93
2022/08/08 11:49:08;;;;;;;4.80;1.50;;;25.50;69.30;;;;;;4980133;28;20050;-94
2022/08/08 11:51:36;;;;;;;4.28;1.50;;;25.60;69.20;;;;;;4981103;28;20019;-94
2022/08/08 11:54:02;;;;;;;2.75;1.13;;;25.70;69.10;;;;;;4980808;28;20065;-91
2022/08/08 11:56:38;;;;;;;4.97;1.35;;;25.80;68.70;;;;;;4982081;28;20381;-93
2022/08/08 11:59:09;;;;;;;6.10;1.13;;;25.90;68.30;;;;;;4980512;28;20057;-94
2022/08/08 12:01:35;;;;;;;3.70;1.40;;;26.00;67.30;;;;;;4973888;28;20026;-93
2022/08/08 12:04:04;;;;;;;3.13;1.38;;;25.90;66.50;;;;;;4973982;28;20023;-94
2022/08/08 12:06:33;;;;;;;3.47;1.40;;;25.80;65.90;;;;;;4974160;28;20042;-93
2022/08/08 12:09:08;;;;;;;3.05;1.35;;;25.70;65.80;;;;;;4979255;28;20484;-93
2022/08/08 12:11:41;;;;;;;4.85;1.25;;;25.60;65.80;;;;;;4992872;28;20707;-94
2022/08/08 12:14:10;;;;;;;6.88;1.40;;;25.60;66.10;;;;;;4967759;28;20090;-93
2022/08/08 12:16:47;;;;;;;6.97;1.20;;;25.50;66.00;;;;;;4983147;28;20023;-93
2022/08/08 12:19:13;;;;;;;7.97;2.20;;;25.50;65.30;;;;;;4982812;28;20038;-95
2022/08/08 12:21:39;;;;;;;3.60;1.10;;;25.40;65.20;;;;;;4982276;28;20026;-94
2022/08/08 12:24:12;;;;;;;6.22;1.17;;;25.40;65.30;;;;;;4980127;28;20056;-93
2022/08/08 12:26:41;;;;;;;5.28;1.40;;;25.40;65.10;;;;;;4980375;28;20057;-91
2022/08/08 12:29:26;;;;;;;4.20;1.48;;;25.60;64.90;;;;;;4990234;28;20030;-93
2022/08/08 12:32:00;;;;;;;2.95;1.42;;;26.00;64.40;;;;;;4999463;28;20491;-93
2022/08/08 12:34:41;;;;;;;3.00;1.20;;;26.40;63.90;;;;;;4986484;28;20038;-92
2022/08/08 12:37:18;;;;;;;3.33;1.20;;;26.60;63.30;;;;;;4960274;28;20035;-92
2022/08/08 12:39:46;;;;;;;4.07;1.10;;;26.80;62.00;;;;;;4972489;28;20046;-91
2022/08/08 12:42:12;;;;;;;4.18;1.30;;;27.00;60.80;;;;;;4965308;28;20023;-92
2022/08/08 12:44:40;;;;;;;4.65;1.20;;;27.10;60.20;;;;;;4977961;28;20045;-92
2022/08/08 12:47:07;;;;;;;3.50;1.30;;;27.00;59.90;;;;;;4977949;28;20050;-92
2022/08/08 12:49:35;;;;;;;2.55;1.10;;;27.00;60.10;;;;;;4978011;28;20046;-92
2022/08/08 12:52:02;;;;;;;2.90;1.10;;;26.90;60.00;;;;;;4978304;28;20515;-93
2022/08/08 12:54:36;;;;;;;4.80;1.45;;;26.80;60.40;;;;;;4978198;28;20014;-91
2022/08/08 12:57:21;;;;;;;4.03;1.60;;;26.90;60.90;;;;;;4978417;28;20065;-92
2022/08/08 12:59:51;;;;;;;3.30;1.20;;;26.80;60.70;;;;;;4979328;28;20547;-92
2022/08/08 13:02:24;;;;;;;5.10;1.15;;;26.80;60.70;;;;;;4979707;28;20072;-93
2022/08/08 13:04:52;;;;;;;8.38;1.77;;;26.70;60.60;;;;;;4978897;28;20061;-92
2022/08/08 13:07:17;;;;;;;2.55;1.45;;;26.70;61.00;;;;;;4981717;28;20038;-92
2022/08/08 13:09:57;;;;;;;5.47;1.73;;;26.80;61.30;;;;;;4974261;28;20452;-91
2022/08/08 13:12:35;;;;;;;5.75;1.50;;;26.80;61.40;;;;;;4975532;28;20041;-93
2022/08/08 13:15:04;;;;;;;7.70;1.50;;;26.80;61.30;;;;;;4989239;28;20146;-93
2022/08/08 13:17:32;;;;;;;2.92;1.52;;;26.80;61.30;;;;;;4980935;28;20033;-92
2022/08/08 13:19:58;;;;;;;4.78;1.70;;;26.80;60.90;;;;;;4967664;28;20121;-92
2022/08/08 13:22:24;;;;;;;2.67;1.30;;;27.00;60.60;;;;;;4985338;28;20081;-92
2022/08/08 13:24:53;;;;;;;4.18;1.40;;;27.30;60.50;;;;;;4988092;28;20038;-92
2022/08/08 13:27:25;;;;;;;4.10;1.70;;;27.70;60.10;;;;;;4982764;28;20018;-93
2022/08/08 13:29:53;;;;;;;3.55;1.52;;;28.00;59.20;;;;;;4980080;28;20044;-92